Time;durP1;ratioP1;P1;durP2;ratioP2;P2;SDS_P1;SDS_P2;PMS_P1;PMS_P2;Temp;Humidity;BMP_temperature;BMP_pressure;BME280_temperature;BME280_humidity;BME280_pressure;Samples;Min_cycle;Max_cycle;Signal;HPM_P1;HPM_P2
2024/02/26 00:01:57;;;;;;;1.13;0.90;;;;;;;;;;5053622;28;20045;-80
2024/02/26 00:04:23;;;;;;;0.80;0.80;;;;;;;;;;5035703;28;20085;-81
2024/02/26 00:06:51;;;;;;;1.20;0.75;;;;;;;;;;5053418;28;20053;-81
2024/02/26 00:09:17;;;;;;;1.40;1.00;;;;;;;;;;5038253;28;20014;-80
2024/02/26 00:11:43;;;;;;;2.03;0.90;;;;;;;;;;5038297;28;20041;-81
2024/02/26 00:14:09;;;;;;;0.98;0.90;;;;;;;;;;5038492;28;20046;-81
2024/02/26 00:16:35;;;;;;;1.33;0.82;;;;;;;;;;5038414;28;20073;-81
2024/02/26 00:19:01;;;;;;;0.47;0.47;;;;;;;;;;5053565;28;20014;-81
2024/02/26 00:21:29;;;;;;;0.60;0.50;;;;;;;;;;5049691;28;20077;-81
2024/02/26 00:23:55;;;;;;;0.50;0.50;;;;;;;;;;5032518;28;20049;-81
2024/02/26 00:26:21;;;;;;;0.85;0.60;;;;;;;;;;5027676;28;20052;-80
2024/02/26 00:28:47;;;;;;;1.20;0.90;;;;;;;;;;5051341;28;20057;-81
2024/02/26 00:31:13;;;;;;;0.88;0.60;;;;;;;;;;5036076;28;20038;-80
2024/02/26 00:33:39;;;;;;;1.73;0.90;;;;;;;;;;5051363;28;20034;-81
2024/02/26 00:36:05;;;;;;;2.35;0.93;;;;;;;;;;5062508;28;20037;-80
2024/02/26 00:38:31;;;;;;;0.93;0.80;;;;;;;;;;5056264;28;20021;-81
2024/02/26 00:40:57;;;;;;;0.77;0.60;;;;;;;;;;5069120;28;20085;-81
2024/02/26 00:43:23;;;;;;;1.33;0.98;;;;;;;;;;5055882;28;20077;-80
2024/02/26 00:45:51;;;;;;;0.93;0.75;;;;;;;;;;5034135;28;20026;-80
2024/02/26 00:48:19;;;;;;;1.60;0.98;;;;;;;;;;5032619;28;20033;-81
2024/02/26 00:50:45;;;;;;;1.58;1.20;;;;;;;;;;5032889;28;20049;-80
2024/02/26 00:53:11;;;;;;;1.73;1.30;;;;;;;;;;5049047;28;20089;-80
2024/02/26 00:55:37;;;;;;;1.33;0.88;;;;;;;;;;5032190;28;20030;-81
2024/02/26 00:58:03;;;;;;;1.17;1.08;;;;;;;;;;5032140;28;20025;-81
2024/02/26 01:00:29;;;;;;;1.48;1.17;;;;;;;;;;5032065;28;20021;-80
2024/02/26 01:02:56;;;;;;;1.83;1.02;;;;;;;;;;5033258;28;20029;-80
2024/02/26 01:05:22;;;;;;;1.38;1.00;;;;;;;;;;5035450;28;20149;-80
2024/02/26 01:07:48;;;;;;;1.33;0.70;;;;;;;;;;5032183;28;20036;-80
2024/02/26 01:10:14;;;;;;;1.10;0.82;;;;;;;;;;5048592;28;20385;-80
2024/02/26 01:12:40;;;;;;;1.10;0.73;;;;;;;;;;5047712;28;20033;-81
2024/02/26 01:15:06;;;;;;;1.05;0.80;;;;;;;;;;5034780;28;20037;-81
2024/02/26 01:17:33;;;;;;;0.98;0.75;;;;;;;;;;5037738;28;20115;-81
2024/02/26 01:19:59;;;;;;;1.05;0.90;;;;;;;;;;5048138;28;20026;-81
2024/02/26 01:22:25;;;;;;;1.08;0.63;;;;;;;;;;5049338;28;20033;-80
2024/02/26 01:24:51;;;;;;;0.73;0.73;;;;;;;;;;5034969;28;20017;-80
2024/02/26 01:27:17;;;;;;;0.70;0.70;;;;;;;;;;5034404;28;20022;-82
2024/02/26 01:29:43;;;;;;;2.15;0.70;;;;;;;;;;5032396;28;20026;-80
2024/02/26 01:32:10;;;;;;;0.70;0.70;;;;;;;;;;5028382;28;20075;-80
2024/02/26 01:34:36;;;;;;;1.20;0.73;;;;;;;;;;5029265;28;20037;-80
2024/02/26 01:37:03;;;;;;;1.25;0.68;;;;;;;;;;5028899;28;20049;-81
2024/02/26 01:39:30;;;;;;;1.13;0.90;;;;;;;;;;5028113;28;20018;-81
2024/02/26 01:41:56;;;;;;;4.38;1.05;;;;;;;;;;5044628;28;20048;-82
2024/02/26 01:44:22;;;;;;;1.10;0.80;;;;;;;;;;5028394;28;20097;-81
2024/02/26 01:46:48;;;;;;;1.33;1.00;;;;;;;;;;5028071;28;20041;-81
2024/02/26 01:49:15;;;;;;;0.88;0.60;;;;;;;;;;5043118;28;20038;-81
2024/02/26 01:51:42;;;;;;;1.90;0.98;;;;;;;;;;5023771;28;20041;-81
2024/02/26 01:54:08;;;;;;;0.75;0.73;;;;;;;;;;5037558;28;20125;-81
2024/02/26 01:56:35;;;;;;;1.13;0.80;;;;;;;;;;5022816;28;20091;-80
2024/02/26 01:59:02;;;;;;;0.80;0.70;;;;;;;;;;5033691;28;20026;-80
2024/02/26 02:01:29;;;;;;;0.88;0.88;;;;;;;;;;5001888;28;20031;-80
2024/02/26 02:03:59;;;;;;;0.70;0.70;;;;;;;;;;5001478;28;20035;-80
2024/02/26 02:06:25;;;;;;;0.75;0.75;;;;;;;;;;5001204;28;20033;-80
2024/02/26 02:08:51;;;;;;;0.98;0.88;;;;;;;;;;5006111;28;20014;-81
2024/02/26 02:11:17;;;;;;;0.60;0.52;;;;;;;;;;5014617;28;20082;-81
2024/02/26 02:13:43;;;;;;;0.82;0.57;;;;;;;;;;5032249;28;20030;-81
2024/02/26 02:16:10;;;;;;;1.00;0.80;;;;;;;;;;5029186;28;20342;-82
2024/02/26 02:18:36;;;;;;;0.77;0.50;;;;;;;;;;5033497;28;20018;-81
2024/02/26 02:21:02;;;;;;;1.05;0.93;;;;;;;;;;5041163;28;20030;-81
2024/02/26 02:23:28;;;;;;;0.98;0.70;;;;;;;;;;5025316;28;20044;-81
2024/02/26 02:25:57;;;;;;;0.68;0.50;;;;;;;;;;5040043;28;20037;-80
2024/02/26 02:28:24;;;;;;;0.95;0.50;;;;;;;;;;5026962;28;20037;-81
2024/02/26 02:30:50;;;;;;;0.60;0.60;;;;;;;;;;5036665;28;20038;-81
2024/02/26 02:33:17;;;;;;;0.70;0.68;;;;;;;;;;5052776;28;20026;-81
2024/02/26 02:35:43;;;;;;;0.77;0.50;;;;;;;;;;5052808;28;20014;-81
2024/02/26 02:38:09;;;;;;;1.27;1.00;;;;;;;;;;5036905;28;20074;-80
2024/02/26 02:40:35;;;;;;;1.02;0.73;;;;;;;;;;5036949;28;20018;-81
2024/02/26 02:43:02;;;;;;;0.80;0.80;;;;;;;;;;5036818;28;20025;-80
2024/02/26 02:45:28;;;;;;;2.97;0.90;;;;;;;;;;5036889;28;20072;-81
2024/02/26 02:47:54;;;;;;;0.75;0.65;;;;;;;;;;5045154;28;20072;-81
2024/02/26 02:50:20;;;;;;;3.65;1.63;;;;;;;;;;5024828;28;20056;-81
2024/02/26 02:52:47;;;;;;;0.73;0.60;;;;;;;;;;5022531;28;20029;-81
2024/02/26 02:55:13;;;;;;;0.85;0.85;;;;;;;;;;5024553;28;20022;-81
2024/02/26 02:57:41;;;;;;;0.93;0.65;;;;;;;;;;5021522;28;20026;-81
2024/02/26 03:00:08;;;;;;;0.60;0.60;;;;;;;;;;5036702;28;20026;-81
2024/02/26 03:02:35;;;;;;;0.50;0.50;;;;;;;;;;5027372;28;20021;-81
2024/02/26 03:05:02;;;;;;;1.00;0.70;;;;;;;;;;5042012;28;20018;-81
2024/02/26 03:07:28;;;;;;;1.13;0.82;;;;;;;;;;5028129;28;20057;-82
2024/02/26 03:09:55;;;;;;;1.50;0.80;;;;;;;;;;5022424;28;20028;-81
2024/02/26 03:12:21;;;;;;;0.93;0.70;;;;;;;;;;5040111;28;20045;-80
2024/02/26 03:14:47;;;;;;;0.75;0.70;;;;;;;;;;5025606;28;20168;-81
2024/02/26 03:17:14;;;;;;;1.45;0.90;;;;;;;;;;5026745;28;20025;-82
2024/02/26 03:19:40;;;;;;;1.67;1.10;;;;;;;;;;5047173;28;20026;-81
2024/02/26 03:22:06;;;;;;;1.17;0.73;;;;;;;;;;5035563;28;20025;-81
2024/02/26 03:24:32;;;;;;;1.33;0.70;;;;;;;;;;5026526;28;20029;-81
2024/02/26 03:26:58;;;;;;;0.70;0.68;;;;;;;;;;5025814;28;20360;-81
2024/02/26 03:29:24;;;;;;;0.60;0.60;;;;;;;;;;5027827;28;20095;-81
2024/02/26 03:31:50;;;;;;;0.80;0.70;;;;;;;;;;5026954;28;20036;-80
2024/02/26 03:34:17;;;;;;;0.70;0.50;;;;;;;;;;5027181;28;20033;-82
2024/02/26 03:36:43;;;;;;;0.75;0.40;;;;;;;;;;5048384;28;20025;-80
2024/02/26 03:39:09;;;;;;;0.60;0.60;;;;;;;;;;5057831;28;20021;-80
2024/02/26 03:41:35;;;;;;;0.63;0.50;;;;;;;;;;5045994;28;20025;-81
2024/02/26 03:44:01;;;;;;;0.70;0.70;;;;;;;;;;5045053;28;20029;-80
2024/02/26 03:46:27;;;;;;;0.70;0.70;;;;;;;;;;5033042;28;20029;-81
2024/02/26 03:48:53;;;;;;;0.60;0.60;;;;;;;;;;5041799;28;20046;-81
2024/02/26 03:51:20;;;;;;;0.85;0.80;;;;;;;;;;5026499;28;20102;-81
2024/02/26 03:53:46;;;;;;;0.63;0.43;;;;;;;;;;5026621;28;20037;-81
2024/02/26 03:56:16;;;;;;;0.55;0.43;;;;;;;;;;5041989;28;20117;-81
2024/02/26 03:58:42;;;;;;;0.68;0.60;;;;;;;;;;5025855;28;20018;-81
2024/02/26 04:01:08;;;;;;;0.38;0.38;;;;;;;;;;5025540;28;20064;-81
2024/02/26 04:03:34;;;;;;;0.43;0.40;;;;;;;;;;5024418;28;20026;-79
2024/02/26 04:06:01;;;;;;;0.90;0.45;;;;;;;;;;5023818;28;20022;-80
2024/02/26 04:08:27;;;;;;;0.60;0.60;;;;;;;;;;5022634;28;20034;-81
2024/02/26 04:10:53;;;;;;;1.00;0.50;;;;;;;;;;5023247;28;20045;-79
2024/02/26 04:13:20;;;;;;;0.68;0.43;;;;;;;;;;5020038;28;20018;-80
2024/02/26 04:15:46;;;;;;;1.33;0.60;;;;;;;;;;5022856;28;20022;-81
2024/02/26 04:18:14;;;;;;;0.57;0.57;;;;;;;;;;5022531;28;20030;-82
2024/02/26 04:20:42;;;;;;;0.38;0.38;;;;;;;;;;5024563;28;20041;-80
2024/02/26 04:23:08;;;;;;;0.60;0.60;;;;;;;;;;5026139;28;20029;-80
2024/02/26 04:25:34;;;;;;;0.57;0.47;;;;;;;;;;5040086;28;20036;-83
2024/02/26 04:28:00;;;;;;;0.85;0.55;;;;;;;;;;5041294;28;20117;-80
2024/02/26 04:30:26;;;;;;;0.50;0.50;;;;;;;;;;5034974;28;20029;-82
2024/02/26 04:32:52;;;;;;;0.52;0.40;;;;;;;;;;5023655;28;20386;-81
2024/02/26 04:35:18;;;;;;;0.63;0.50;;;;;;;;;;5031079;28;20029;-80
2024/02/26 04:37:44;;;;;;;1.23;0.60;;;;;;;;;;5028953;28;20025;-81
2024/02/26 04:40:10;;;;;;;0.60;0.60;;;;;;;;;;5026019;28;20073;-81
2024/02/26 04:42:36;;;;;;;0.73;0.70;;;;;;;;;;5038111;28;20057;-79
2024/02/26 04:45:03;;;;;;;0.50;0.50;;;;;;;;;;5044275;28;20027;-79
2024/02/26 04:47:29;;;;;;;0.65;0.50;;;;;;;;;;5027500;28;20034;-79
2024/02/26 04:49:56;;;;;;;0.40;0.40;;;;;;;;;;5033282;28;20090;-78
2024/02/26 04:52:22;;;;;;;0.55;0.52;;;;;;;;;;5022869;28;20037;-79
2024/02/26 04:54:48;;;;;;;2.10;0.75;;;;;;;;;;5019256;28;20026;-78
2024/02/26 04:57:14;;;;;;;0.70;0.52;;;;;;;;;;5039570;28;20030;-79
2024/02/26 04:59:42;;;;;;;0.43;0.40;;;;;;;;;;5001366;28;20113;-77
2024/02/26 05:02:08;;;;;;;0.60;0.40;;;;;;;;;;5040157;28;20030;-79
2024/02/26 05:04:34;;;;;;;0.70;0.52;;;;;;;;;;5028355;28;20048;-78
2024/02/26 05:07:00;;;;;;;1.17;0.50;;;;;;;;;;5028511;28;20045;-78
2024/02/26 05:09:26;;;;;;;0.60;0.50;;;;;;;;;;5025615;28;20026;-78
2024/02/26 05:11:52;;;;;;;0.40;0.40;;;;;;;;;;5021708;28;20456;-79
2024/02/26 05:14:18;;;;;;;0.55;0.50;;;;;;;;;;5020001;28;20373;-79
2024/02/26 05:16:44;;;;;;;0.50;0.45;;;;;;;;;;5020305;28;20060;-78
2024/02/26 05:19:11;;;;;;;0.22;0.22;;;;;;;;;;5021228;28;20018;-79
2024/02/26 05:21:38;;;;;;;0.30;0.30;;;;;;;;;;5034171;28;20033;-78
2024/02/26 05:24:04;;;;;;;1.08;0.40;;;;;;;;;;5029340;28;20101;-77
2024/02/26 05:26:30;;;;;;;0.38;0.38;;;;;;;;;;5017613;28;20038;-77
2024/02/26 05:28:59;;;;;;;0.35;0.30;;;;;;;;;;5026876;28;20036;-79
2024/02/26 05:31:26;;;;;;;0.63;0.38;;;;;;;;;;5014284;28;20021;-79
2024/02/26 05:33:52;;;;;;;0.35;0.32;;;;;;;;;;5033638;28;20128;-77
2024/02/26 05:36:19;;;;;;;0.40;0.40;;;;;;;;;;5041752;28;20052;-79
2024/02/26 05:38:46;;;;;;;0.30;0.30;;;;;;;;;;5020204;28;20339;-79
2024/02/26 05:41:12;;;;;;;0.28;0.22;;;;;;;;;;5020433;28;20026;-78
2024/02/26 05:43:38;;;;;;;0.38;0.38;;;;;;;;;;5020635;28;20436;-78
2024/02/26 05:46:04;;;;;;;0.63;0.40;;;;;;;;;;5020986;28;20026;-79
2024/02/26 05:48:32;;;;;;;0.77;0.38;;;;;;;;;;5029804;28;20041;-80
2024/02/26 05:50:58;;;;;;;0.40;0.20;;;;;;;;;;5024939;28;20026;-80
2024/02/26 05:53:24;;;;;;;0.30;0.30;;;;;;;;;;5020052;28;20051;-79
2024/02/26 05:55:51;;;;;;;0.57;0.45;;;;;;;;;;5022867;28;20470;-79
2024/02/26 05:58:17;;;;;;;0.63;0.28;;;;;;;;;;5021092;28;20025;-80
2024/02/26 06:00:43;;;;;;;0.73;0.30;;;;;;;;;;5020063;28;20026;-80
2024/02/26 06:03:09;;;;;;;0.40;0.30;;;;;;;;;;5062753;28;20137;-79
2024/02/26 06:05:35;;;;;;;0.47;0.20;;;;;;;;;;5045486;28;20029;-80
2024/02/26 06:08:02;;;;;;;0.30;0.25;;;;;;;;;;5026150;28;20030;-80
2024/02/26 06:10:28;;;;;;;0.30;0.30;;;;;;;;;;5026094;28;20018;-81
2024/02/26 06:12:54;;;;;;;0.50;0.30;;;;;;;;;;5026026;28;20022;-79
2024/02/26 06:15:20;;;;;;;0.60;0.28;;;;;;;;;;5041429;28;20034;-79
2024/02/26 06:17:46;;;;;;;0.50;0.32;;;;;;;;;;5028429;28;20030;-79
2024/02/26 06:20:13;;;;;;;0.20;0.20;;;;;;;;;;5046518;28;20114;-79
2024/02/26 06:22:40;;;;;;;0.50;0.25;;;;;;;;;;5037088;28;20021;-79
2024/02/26 06:25:07;;;;;;;0.25;0.25;;;;;;;;;;5035728;28;20089;-79
2024/02/26 06:27:33;;;;;;;0.40;0.30;;;;;;;;;;5044917;28;20051;-79
2024/02/26 06:29:59;;;;;;;0.52;0.40;;;;;;;;;;5045866;28;20018;-79
2024/02/26 06:32:27;;;;;;;0.30;0.30;;;;;;;;;;5033608;28;20018;-80
2024/02/26 06:34:53;;;;;;;0.25;0.20;;;;;;;;;;5034546;28;20010;-80
2024/02/26 06:37:19;;;;;;;0.40;0.35;;;;;;;;;;5046720;28;20097;-80
2024/02/26 06:39:45;;;;;;;0.40;0.30;;;;;;;;;;5027498;28;20022;-80
2024/02/26 06:42:12;;;;;;;0.57;0.50;;;;;;;;;;5025818;28;20030;-81
2024/02/26 06:44:38;;;;;;;0.30;0.30;;;;;;;;;;5041612;28;20418;-79
2024/02/26 06:47:04;;;;;;;0.30;0.30;;;;;;;;;;5026702;28;20048;-78
2024/02/26 06:49:30;;;;;;;0.40;0.40;;;;;;;;;;5027855;28;20042;-79
2024/02/26 06:51:56;;;;;;;0.50;0.32;;;;;;;;;;5038369;28;20033;-79
2024/02/26 06:54:22;;;;;;;0.70;0.70;;;;;;;;;;5038705;28;20025;-80
2024/02/26 06:56:48;;;;;;;1.80;0.50;;;;;;;;;;5039615;28;20022;-80
2024/02/26 06:59:15;;;;;;;1.15;0.63;;;;;;;;;;5039541;28;20053;-80
2024/02/26 07:01:41;;;;;;;0.85;0.60;;;;;;;;;;5037423;28;20022;-79
2024/02/26 07:04:07;;;;;;;2.47;0.95;;;;;;;;;;5041362;28;20033;-78
2024/02/26 07:06:34;;;;;;;1.73;0.80;;;;;;;;;;5040331;28;20022;-77
2024/02/26 07:09:00;;;;;;;2.40;0.77;;;;;;;;;;5034168;28;20036;-80
2024/02/26 07:11:26;;;;;;;1.35;0.88;;;;;;;;;;5035467;28;20030;-79
2024/02/26 07:13:52;;;;;;;1.65;1.02;;;;;;;;;;5036361;28;20033;-79
2024/02/26 07:16:18;;;;;;;1.55;1.10;;;;;;;;;;5024738;28;20029;-82
2024/02/26 07:18:44;;;;;;;2.38;1.30;;;;;;;;;;5021835;28;20460;-79
2024/02/26 07:21:10;;;;;;;1.77;1.00;;;;;;;;;;5041221;28;20117;-79
2024/02/26 07:23:36;;;;;;;1.92;1.10;;;;;;;;;;5021317;28;20032;-79
2024/02/26 07:26:02;;;;;;;1.75;1.20;;;;;;;;;;5043822;28;20060;-80
2024/02/26 07:28:28;;;;;;;3.45;1.02;;;;;;;;;;5051476;28;20029;-79
2024/02/26 07:30:54;;;;;;;0.95;0.95;;;;;;;;;;5023363;28;20120;-79
2024/02/26 07:33:20;;;;;;;1.58;0.98;;;;;;;;;;5025867;28;20049;-80
2024/02/26 07:35:46;;;;;;;1.52;1.15;;;;;;;;;;5027394;28;20022;-80
2024/02/26 07:38:13;;;;;;;0.93;0.90;;;;;;;;;;5026992;28;20026;-79
2024/02/26 07:40:39;;;;;;;1.33;1.00;;;;;;;;;;5024744;28;20029;-80
2024/02/26 07:43:05;;;;;;;1.35;1.10;;;;;;;;;;5027106;28;20030;-79
2024/02/26 07:45:31;;;;;;;4.07;1.65;;;;;;;;;;5027488;28;20520;-81
2024/02/26 07:47:57;;;;;;;4.35;1.80;;;;;;;;;;5046378;28;20026;-79
2024/02/26 07:50:23;;;;;;;2.85;1.50;;;;;;;;;;5031361;28;20037;-80
2024/02/26 07:52:51;;;;;;;2.63;1.77;;;;;;;;;;5043194;28;20428;-80
2024/02/26 07:55:17;;;;;;;2.35;1.40;;;;;;;;;;5026493;28;20018;-81
2024/02/26 07:57:43;;;;;;;1.92;1.35;;;;;;;;;;5027043;28;20022;-79
2024/02/26 08:00:10;;;;;;;1.63;1.10;;;;;;;;;;5019997;28;20022;-79
2024/02/26 08:02:39;;;;;;;1.65;1.20;;;;;;;;;;5023575;28;20030;-79
2024/02/26 08:05:05;;;;;;;1.08;0.93;;;;;;;;;;5023883;28;20040;-79
2024/02/26 08:07:34;;;;;;;1.85;0.82;;;;;;;;;;5041361;28;20026;-78
2024/02/26 08:10:00;;;;;;;1.45;1.10;;;;;;;;;;5037825;28;20021;-78
2024/02/26 08:12:26;;;;;;;1.83;1.00;;;;;;;;;;5024811;28;20030;-80
2024/02/26 08:14:52;;;;;;;2.58;1.40;;;;;;;;;;5024604;28;20034;-80
2024/02/26 08:17:18;;;;;;;1.15;1.05;;;;;;;;;;5041463;28;20486;-80
2024/02/26 08:19:44;;;;;;;1.20;1.10;;;;;;;;;;5027851;28;20450;-80
2024/02/26 08:22:15;;;;;;;2.47;1.40;;;;;;;;;;5020881;28;20029;-80
2024/02/26 08:24:42;;;;;;;1.98;1.10;;;;;;;;;;5023417;28;20026;-79
2024/02/26 08:27:08;;;;;;;2.05;1.10;;;;;;;;;;5019525;28;20030;-79
2024/02/26 08:29:34;;;;;;;1.73;1.08;;;;;;;;;;5033881;28;20489;-79
2024/02/26 08:32:00;;;;;;;1.52;1.20;;;;;;;;;;5027072;28;20034;-79
2024/02/26 08:34:27;;;;;;;2.75;1.38;;;;;;;;;;5034851;28;20026;-79
2024/02/26 08:36:53;;;;;;;1.83;1.10;;;;;;;;;;5026364;28;20041;-80
2024/02/26 08:39:20;;;;;;;1.58;1.45;;;;;;;;;;5025198;28;20030;-80
2024/02/26 08:41:46;;;;;;;1.42;1.10;;;;;;;;;;5023187;28;20027;-80
2024/02/26 08:44:12;;;;;;;1.45;1.30;;;;;;;;;;5022776;28;20512;-79
2024/02/26 08:46:39;;;;;;;0.85;0.75;;;;;;;;;;5026077;28;20034;-79
2024/02/26 08:49:05;;;;;;;1.13;1.00;;;;;;;;;;5025639;28;20046;-81
2024/02/26 08:51:31;;;;;;;1.15;0.88;;;;;;;;;;5026278;28;20022;-80
2024/02/26 08:54:00;;;;;;;1.33;0.98;;;;;;;;;;5022480;28;20037;-80
2024/02/26 08:56:27;;;;;;;3.33;1.25;;;;;;;;;;5036990;28;20049;-80
2024/02/26 08:58:55;;;;;;;4.47;1.50;;;;;;;;;;5018877;28;20074;-79
2024/02/26 09:01:23;;;;;;;2.75;1.50;;;;;;;;;;5030555;28;20061;-80
2024/02/26 09:03:49;;;;;;;2.92;1.13;;;;;;;;;;5047141;28;20040;-80
2024/02/26 09:06:16;;;;;;;1.90;1.10;;;;;;;;;;5037623;28;20006;-80
2024/02/26 09:08:42;;;;;;;0.85;0.80;;;;;;;;;;5052556;28;20042;-79
2024/02/26 09:11:10;;;;;;;1.45;1.08;;;;;;;;;;5037194;28;20048;-81
2024/02/26 09:13:36;;;;;;;2.28;1.10;;;;;;;;;;5034622;28;20057;-80
2024/02/26 09:16:02;;;;;;;1.95;1.40;;;;;;;;;;5037116;28;20025;-79
2024/02/26 09:18:28;;;;;;;3.60;1.95;;;;;;;;;;5036992;28;20010;-79
2024/02/26 09:20:55;;;;;;;2.05;1.75;;;;;;;;;;5044165;28;20010;-81
2024/02/26 09:23:21;;;;;;;3.08;1.92;;;;;;;;;;5033425;28;20041;-80
2024/02/26 09:25:47;;;;;;;2.78;1.60;;;;;;;;;;5020169;28;20049;-79
2024/02/26 09:28:15;;;;;;;2.47;1.40;;;;;;;;;;5030032;28;20045;-80
2024/02/26 09:30:41;;;;;;;1.67;1.33;;;;;;;;;;5025888;28;20077;-79
2024/02/26 09:33:07;;;;;;;2.45;1.60;;;;;;;;;;5026337;28;20026;-80
2024/02/26 09:35:33;;;;;;;1.75;1.40;;;;;;;;;;5026772;28;20016;-80
2024/02/26 09:38:00;;;;;;;1.98;1.30;;;;;;;;;;5041324;28;20025;-80
2024/02/26 09:40:27;;;;;;;1.30;1.20;;;;;;;;;;5029884;28;20025;-80
2024/02/26 09:42:56;;;;;;;0.70;0.70;;;;;;;;;;5030653;28;20107;-81
2024/02/26 09:45:25;;;;;;;1.67;1.20;;;;;;;;;;5042662;28;20033;-79
2024/02/26 09:47:51;;;;;;;0.98;0.85;;;;;;;;;;5026398;28;20022;-80
2024/02/26 09:50:22;;;;;;;1.15;0.90;;;;;;;;;;5025064;28;20054;-80
2024/02/26 09:52:48;;;;;;;1.15;1.00;;;;;;;;;;5024772;28;20041;-81
2024/02/26 09:55:14;;;;;;;1.50;1.25;;;;;;;;;;5034465;28;20068;-80
2024/02/26 09:57:44;;;;;;;2.60;1.35;;;;;;;;;;5011178;28;20026;-79
2024/02/26 10:00:13;;;;;;;4.32;1.75;;;;;;;;;;5040886;28;20073;-82
2024/02/26 10:02:40;;;;;;;3.08;1.58;;;;;;;;;;5049753;28;20029;-80
2024/02/26 10:05:08;;;;;;;2.92;1.60;;;;;;;;;;5026729;28;20485;-80
2024/02/26 10:07:34;;;;;;;3.03;2.17;;;;;;;;;;5023682;28;20094;-79
2024/02/26 10:10:00;;;;;;;3.30;1.98;;;;;;;;;;5022733;28;20033;-80
2024/02/26 10:12:28;;;;;;;4.53;2.00;;;;;;;;;;5025349;28;20029;-79
2024/02/26 10:14:54;;;;;;;2.08;1.42;;;;;;;;;;5040204;28;20037;-80
2024/02/26 10:17:20;;;;;;;3.13;1.20;;;;;;;;;;5038381;28;20022;-80
2024/02/26 10:19:46;;;;;;;2.15;1.20;;;;;;;;;;5038866;28;20026;-81
2024/02/26 10:22:12;;;;;;;1.55;0.90;;;;;;;;;;5024264;28;20428;-80
2024/02/26 10:24:39;;;;;;;3.30;1.65;;;;;;;;;;5024698;28;20060;-81
2024/02/26 10:27:05;;;;;;;1.58;1.10;;;;;;;;;;5046394;28;20050;-80
2024/02/26 10:29:32;;;;;;;1.48;0.93;;;;;;;;;;5025404;28;20018;-81
2024/02/26 10:31:58;;;;;;;1.50;1.10;;;;;;;;;;5026068;28;20122;-80
2024/02/26 10:34:24;;;;;;;3.08;2.00;;;;;;;;;;5038097;28;20031;-79
2024/02/26 10:36:50;;;;;;;0.88;0.73;;;;;;;;;;5020346;28;20021;-77
2024/02/26 10:39:17;;;;;;;1.73;0.95;;;;;;;;;;5016935;28;20026;-79
2024/02/26 10:41:43;;;;;;;1.98;0.85;;;;;;;;;;5026113;28;20107;-78
2024/02/26 10:44:12;;;;;;;1.08;0.88;;;;;;;;;;5018053;28;20073;-78
2024/02/26 10:46:39;;;;;;;2.63;0.80;;;;;;;;;;5010873;28;20030;-79
2024/02/26 10:49:06;;;;;;;1.27;0.68;;;;;;;;;;5019477;28;20069;-79
2024/02/26 10:51:34;;;;;;;1.08;0.80;;;;;;;;;;5014760;28;20029;-79
2024/02/26 10:54:02;;;;;;;1.05;0.80;;;;;;;;;;5022135;28;20033;-79
2024/02/26 10:56:33;;;;;;;1.00;0.82;;;;;;;;;;5013750;28;20510;-79
2024/02/26 10:59:00;;;;;;;0.95;0.70;;;;;;;;;;5029135;28;20017;-79
2024/02/26 11:01:29;;;;;;;0.40;0.40;;;;;;;;;;5035751;28;20101;-79
2024/02/26 11:03:56;;;;;;;2.20;0.73;;;;;;;;;;5023120;28;20022;-78
2024/02/26 11:06:23;;;;;;;0.80;0.70;;;;;;;;;;5022361;28;20113;-79
2024/02/26 11:08:50;;;;;;;0.50;0.50;;;;;;;;;;5021578;28;20026;-78
2024/02/26 11:11:18;;;;;;;0.52;0.52;;;;;;;;;;5019500;28;20378;-79
2024/02/26 11:13:49;;;;;;;1.58;0.77;;;;;;;;;;5010965;28;20046;-79
2024/02/26 11:16:16;;;;;;;0.73;0.60;;;;;;;;;;5013885;28;20029;-79
2024/02/26 11:18:42;;;;;;;0.70;0.43;;;;;;;;;;5019484;28;20429;-78
2024/02/26 11:21:09;;;;;;;1.88;0.40;;;;;;;;;;5026670;28;20022;-80
2024/02/26 11:23:36;;;;;;;0.60;0.60;;;;;;;;;;5030400;28;20054;-79
2024/02/26 11:26:06;;;;;;;0.55;0.50;;;;;;;;;;5009627;28;20027;-78
2024/02/26 11:28:33;;;;;;;0.73;0.73;;;;;;;;;;5009320;28;20040;-79
2024/02/26 11:31:00;;;;;;;1.27;0.70;;;;;;;;;;5015344;28;20026;-79
2024/02/26 11:33:26;;;;;;;0.80;0.80;;;;;;;;;;5021276;28;20030;-78
2024/02/26 11:35:52;;;;;;;0.95;0.68;;;;;;;;;;5035093;28;20454;-79
2024/02/26 11:38:21;;;;;;;0.65;0.65;;;;;;;;;;5016763;28;20045;-79
2024/02/26 11:40:48;;;;;;;1.35;0.65;;;;;;;;;;5034419;28;20312;-77
2024/02/26 11:43:14;;;;;;;1.20;0.57;;;;;;;;;;5036692;28;20045;-79
2024/02/26 11:45:46;;;;;;;0.60;0.60;;;;;;;;;;5022241;28;20049;-80
2024/02/26 11:48:17;;;;;;;0.90;0.80;;;;;;;;;;5035350;28;20125;-80
2024/02/26 11:50:46;;;;;;;0.60;0.60;;;;;;;;;;5021887;28;20026;-81
2024/02/26 11:53:30;;;;;;;0.40;0.40;;;;;;;;;;5025207;28;20119;-81
2024/02/26 11:56:15;;;;;;;0.70;0.70;;;;;;;;;;5018369;28;20097;-80
2024/02/26 11:58:42;;;;;;;1.33;1.13;;;;;;;;;;5040121;28;20107;-79
2024/02/26 12:01:26;;;;;;;1.05;0.90;;;;;;;;;;5029635;28;20026;-78
2024/02/26 12:03:55;;;;;;;0.73;0.60;;;;;;;;;;5006198;28;20078;-78
2024/02/26 12:06:22;;;;;;;1.13;0.75;;;;;;;;;;5036467;28;20040;-79
2024/02/26 12:08:48;;;;;;;1.50;0.88;;;;;;;;;;5017959;28;20030;-78
2024/02/26 12:11:17;;;;;;;1.05;0.70;;;;;;;;;;5019710;28;20029;-78
2024/02/26 12:13:49;;;;;;;0.65;0.57;;;;;;;;;;5019810;28;20065;-78
2024/02/26 12:16:35;;;;;;;0.70;0.70;;;;;;;;;;5043950;28;20029;-79
2024/02/26 12:19:02;;;;;;;1.08;0.80;;;;;;;;;;5021186;28;20022;-78
2024/02/26 12:21:28;;;;;;;1.30;0.88;;;;;;;;;;5019977;28;20428;-79
2024/02/26 12:23:54;;;;;;;2.28;1.05;;;;;;;;;;5029266;28;20030;-78
2024/02/26 12:26:20;;;;;;;1.08;0.68;;;;;;;;;;5034606;28;20085;-79
2024/02/26 12:28:47;;;;;;;0.77;0.77;;;;;;;;;;5028533;28;20033;-79
2024/02/26 12:31:14;;;;;;;0.98;0.80;;;;;;;;;;5018290;28;20030;-79
2024/02/26 12:33:40;;;;;;;2.15;0.70;;;;;;;;;;5032654;28;20056;-77
2024/02/26 12:36:07;;;;;;;0.80;0.52;;;;;;;;;;5023548;28;20504;-79
2024/02/26 12:38:35;;;;;;;0.35;0.35;;;;;;;;;;5026906;28;20014;-78
2024/02/26 12:41:01;;;;;;;0.38;0.38;;;;;;;;;;5029121;28;20076;-78
2024/02/26 12:43:27;;;;;;;0.95;0.73;;;;;;;;;;5018479;28;20559;-78
2024/02/26 12:45:53;;;;;;;0.52;0.40;;;;;;;;;;5017148;28;20441;-77
2024/02/26 12:48:20;;;;;;;1.05;0.40;;;;;;;;;;5018359;28;20040;-78
2024/02/26 12:50:47;;;;;;;0.38;0.38;;;;;;;;;;5033137;28;20044;-78
2024/02/26 12:53:13;;;;;;;1.52;0.65;;;;;;;;;;5021652;28;20029;-78
2024/02/26 12:55:40;;;;;;;0.70;0.70;;;;;;;;;;5028596;28;20021;-79
2024/02/26 12:58:06;;;;;;;2.33;0.60;;;;;;;;;;5021330;28;20468;-77
2024/02/26 13:00:33;;;;;;;1.13;0.70;;;;;;;;;;5018320;28;20025;-78
2024/02/26 13:03:00;;;;;;;1.08;0.93;;;;;;;;;;5019090;28;20449;-79
2024/02/26 13:05:26;;;;;;;2.47;0.70;;;;;;;;;;5021178;28;20030;-78
2024/02/26 13:07:53;;;;;;;1.40;0.90;;;;;;;;;;5044363;28;20056;-79
2024/02/26 13:10:21;;;;;;;1.05;0.70;;;;;;;;;;5014738;28;20037;-79
2024/02/26 13:12:50;;;;;;;0.82;0.77;;;;;;;;;;5032451;28;20122;-79
2024/02/26 13:15:17;;;;;;;1.30;1.05;;;;;;;;;;5021705;28;20036;-79
2024/02/26 13:17:44;;;;;;;1.23;1.10;;;;;;;;;;5028635;28;20030;-80
2024/02/26 13:20:10;;;;;;;2.50;1.33;;;;;;;;;;5046983;28;20077;-79
2024/02/26 13:22:37;;;;;;;1.98;1.30;;;;;;;;;;5018944;28;20041;-78
2024/02/26 13:25:03;;;;;;;1.63;1.20;;;;;;;;;;5031074;28;20636;-79
2024/02/26 13:27:31;;;;;;;1.50;1.25;;;;;;;;;;5026507;28;20397;-78
2024/02/26 13:30:05;;;;;;;3.38;1.17;;;;;;;;;;5035693;28;20116;-77
2024/02/26 13:32:35;;;;;;;2.03;1.08;;;;;;;;;;5020711;28;20025;-80
2024/02/26 13:35:11;;;;;;;3.40;1.17;;;;;;;;;;5018494;28;20057;-80
2024/02/26 13:37:38;;;;;;;0.95;0.88;;;;;;;;;;5033613;28;20030;-79
2024/02/26 13:40:08;;;;;;;0.82;0.73;;;;;;;;;;5017882;28;20037;-78
2024/02/26 13:42:34;;;;;;;0.65;0.65;;;;;;;;;;5020913;28;20080;-79
2024/02/26 13:45:00;;;;;;;0.75;0.65;;;;;;;;;;5036062;28;20025;-76
2024/02/26 13:47:26;;;;;;;0.57;0.57;;;;;;;;;;5026967;28;20085;-78
2024/02/26 13:49:52;;;;;;;1.77;0.70;;;;;;;;;;5020380;28;20037;-79
2024/02/26 13:52:20;;;;;;;1.75;0.80;;;;;;;;;;5021712;28;20053;-78
2024/02/26 13:54:46;;;;;;;1.52;0.45;;;;;;;;;;5038064;28;20046;-77
2024/02/26 13:57:12;;;;;;;0.43;0.43;;;;;;;;;;5039212;28;20034;-73
2024/02/26 13:59:42;;;;;;;0.75;0.55;;;;;;;;;;5046862;28;20040;-79
2024/02/26 14:02:11;;;;;;;0.50;0.50;;;;;;;;;;5034067;28;20038;-78
2024/02/26 14:04:37;;;;;;;0.70;0.70;;;;;;;;;;5023936;28;20022;-79
2024/02/26 14:07:04;;;;;;;2.42;0.80;;;;;;;;;;5035244;28;20017;-78
2024/02/26 14:09:31;;;;;;;0.85;0.70;;;;;;;;;;5037663;28;20018;-79
2024/02/26 14:11:58;;;;;;;1.55;0.73;;;;;;;;;;5039158;28;20026;-79
2024/02/26 14:14:24;;;;;;;0.88;0.88;;;;;;;;;;5044471;28;20132;-79
2024/02/26 14:16:50;;;;;;;1.52;1.42;;;;;;;;;;5021397;28;20037;-78
2024/02/26 14:19:16;;;;;;;2.45;1.35;;;;;;;;;;5019644;28;20034;-79
2024/02/26 14:21:42;;;;;;;1.40;1.23;;;;;;;;;;5029938;28;20054;-78
2024/02/26 14:24:08;;;;;;;4.28;1.30;;;;;;;;;;5019596;28;20073;-78
2024/02/26 14:26:34;;;;;;;1.48;1.30;;;;;;;;;;5042636;28;20033;-79
2024/02/26 14:29:00;;;;;;;3.38;1.02;;;;;;;;;;5018636;28;20025;-79
2024/02/26 14:31:26;;;;;;;2.15;1.10;;;;;;;;;;5019726;28;20049;-78
2024/02/26 14:33:53;;;;;;;1.88;1.30;;;;;;;;;;5023055;28;20390;-78
2024/02/26 14:36:20;;;;;;;1.77;1.00;;;;;;;;;;5015528;28;20050;-78
2024/02/26 14:38:47;;;;;;;2.10;1.38;;;;;;;;;;5017228;28;20034;-78
2024/02/26 14:41:13;;;;;;;2.80;0.80;;;;;;;;;;5016520;28;20028;-77